Ahmeek, Michigan
Current Conditions -  °F | °C
As of 4:53 AM on Tuesday 21 Oct 2014 (Local Time) from KCMX Reporting Station
Overcast Overcast  
Wind Chill:   Ceiling: 1300
Heat Index:   Visibility: 10mi
Dew Point:   Wind: 7mph
Humidity: 79%   Direction: 20°NNE
Pressure: 30.16"   Gusts: NA
Location:  47.3°N, 88.4°W
Report Text: KCMX 210853Z AUTO 02006KT 10SM OVC013 03/00 A3016 RMK AO2 SLP224 T00330000 51016
Loading
Personal Weather Stations






























Interactive Weather Map
Tropical Storm Tracking
New forecast layout! Learn more

10-Day Weather Forecast

Advertisements
Track Severe Weather on mobile